Time;durP1;ratioP1;P1;durP2;ratioP2;P2;SDS_P1;SDS_P2;PMS_P1;PMS_P2;Temp;Humidity;BMP_temperature;BMP_pressure;BME280_temperature;BME280_humidity;BME280_pressure;Samples;Min_cycle;Max_cycle;Signal;HPM_P1;HPM_P2
2023/06/22 00:00:13;;;;;;;10.65;8.77;;;;;18.90;94287.00;;;;7395155;19;20841;-80
2023/06/22 00:02:48;;;;;;;11.10;8.27;;;;;19.00;94292.00;;;;7397683;19;20184;-79
2023/06/22 00:05:17;;;;;;;12.27;8.73;;;;;18.90;94300.00;;;;7399599;19;20627;-79
2023/06/22 00:07:51;;;;;;;9.68;8.38;;;;;18.90;94302.00;;;;7396025;19;20140;-79
2023/06/22 00:10:27;;;;;;;8.48;7.60;;;;;18.80;94301.00;;;;7397810;19;20607;-79
2023/06/22 00:13:01;;;;;;;12.30;8.27;;;;;18.70;94310.00;;;;7399552;19;20148;-81
2023/06/22 00:15:30;;;;;;;12.73;8.77;;;;;18.70;94313.00;;;;7398031;19;20617;-79
2023/06/22 00:18:07;;;;;;;9.48;8.40;;;;;18.70;94304.00;;;;7397753;19;20148;-79
2023/06/22 00:20:42;;;;;;;12.88;8.57;;;;;18.60;94299.00;;;;7398447;19;20609;-79
2023/06/22 00:23:10;;;;;;;12.43;8.63;;;;;18.60;94295.00;;;;7400114;19;20510;-81
2023/06/22 00:25:41;;;;;;;10.68;8.98;;;;;18.50;94296.00;;;;7396962;19;20145;-78
2023/06/22 00:28:16;;;;;;;12.50;9.88;;;;;18.50;94296.00;;;;7397695;19;20620;-77
2023/06/22 00:30:45;;;;;;;13.73;9.30;;;;;18.70;94299.00;;;;7397686;19;20152;-79
2023/06/22 00:33:20;;;;;;;12.55;9.50;;;;;18.70;94338.00;;;;7396887;19;20488;-78
2023/06/22 00:35:54;;;;;;;17.58;7.93;;;;;18.80;94391.00;;;;7397071;19;20143;-79
2023/06/22 00:38:28;;;;;;;12.13;7.95;;;;;18.70;94403.00;;;;7397637;19;20150;-79
2023/06/22 00:41:02;;;;;;;11.23;7.22;;;;;18.70;94411.00;;;;7390036;19;20590;-79
2023/06/22 00:43:36;;;;;;;12.00;8.38;;;;;18.70;94397.00;;;;7392406;19;20581;-79
2023/06/22 00:46:10;;;;;;;10.88;8.40;;;;;18.60;94358.00;;;;7396497;19;20145;-81
2023/06/22 00:48:44;;;;;;;10.55;8.23;;;;;18.60;94347.00;;;;7396317;19;20137;-77
2023/06/22 00:51:12;;;;;;;10.68;7.57;;;;;18.40;94348.00;;;;7397003;19;20160;-80
2023/06/22 00:53:47;;;;;;;16.58;8.32;;;;;18.10;94328.00;;;;7397241;19;20480;-81
2023/06/22 00:56:19;;;;;;;11.85;8.48;;;;;18.10;94316.00;;;;7399664;19;20143;-79
2023/06/22 00:58:54;;;;;;;12.02;8.57;;;;;18.20;94300.00;;;;7396755;19;20166;-79
2023/06/22 01:01:23;;;;;;;8.93;7.50;;;;;17.90;94294.00;;;;7398061;19;20454;-77
2023/06/22 01:03:58;;;;;;;9.07;8.18;;;;;17.70;94295.00;;;;7397278;19;20565;-76
2023/06/22 01:06:40;;;;;;;10.98;6.93;;;;;17.60;94307.00;;;;7396106;19;20148;-76
2023/06/22 01:09:22;;;;;;;8.68;7.68;;;16.70;99.90;17.60;94260.00;;;;7394889;19;20133;-76
2023/06/22 01:11:59;;;;;;;11.85;8.85;;;16.60;1.00;17.60;94295.00;;;;7395103;19;20159;-76
2023/06/22 01:14:53;;;;;;;11.77;9.57;;;16.60;1.00;17.80;94295.00;;;;7396628;19;20159;-78
2023/06/22 01:17:22;;;;;;;15.95;9.32;;;16.60;1.00;17.90;94288.00;;;;7396452;19;20605;-77
2023/06/22 01:19:57;;;;;;;13.18;8.93;;;16.70;62.70;17.90;94241.00;;;;7398760;19;20480;-77
2023/06/22 01:22:32;;;;;;;14.77;8.63;;;16.70;99.90;17.90;94285.00;;;;7395442;19;20562;-76
2023/06/22 01:25:20;;;;;;;12.25;9.45;;;16.60;83.40;17.80;94276.00;;;;7396561;19;20133;-76
2023/06/22 01:28:04;;;;;;;9.63;8.10;;;16.50;99.90;17.60;94295.00;;;;7395773;19;20145;-75
2023/06/22 01:30:39;;;;;;;9.48;7.93;;;16.50;99.90;17.50;94298.00;;;;7396181;19;20525;-75
2023/06/22 01:33:11;;;;;;;10.88;8.75;;;16.50;99.90;17.40;94267.00;;;;7395041;19;20149;-76
2023/06/22 01:35:44;;;;;;;13.18;9.00;;;16.40;99.90;17.30;94288.00;;;;7395683;19;20148;-77
2023/06/22 01:38:19;;;;;;;11.05;8.50;;;16.40;99.90;17.40;94270.00;;;;7394112;19;20137;-77
2023/06/22 01:40:53;;;;;;;9.60;8.13;;;16.30;99.90;17.30;94299.00;;;;7396120;19;20601;-76
2023/06/22 01:43:29;;;;;;;13.43;9.38;;;16.20;99.90;17.30;94260.00;;;;7395880;19;20144;-76
2023/06/22 01:45:59;;;;;;;13.43;9.27;;;16.20;99.90;17.30;94295.00;;;;7394795;19;20503;-77
2023/06/22 01:48:34;;;;;;;10.57;9.00;;;16.20;1.00;17.30;94294.00;;;;7394954;19;20148;-77
2023/06/22 01:51:03;;;;;;;10.43;8.52;;;16.30;1.00;17.30;94314.00;;;;7394377;19;20140;-77
2023/06/22 01:53:37;;;;;;;11.13;8.88;;;16.30;1.00;17.40;94273.00;;;;7396580;19;20155;-76
2023/06/22 01:56:04;;;;;;;17.13;9.45;;;16.20;1.00;17.30;94298.00;;;;7395906;19;20143;-76
2023/06/22 01:59:14;;;;;;;11.00;8.80;;;16.20;1.00;17.30;94295.00;;;;7395494;19;20120;-76
2023/06/22 02:02:14;;;;;;;14.18;9.85;;;16.20;1.00;17.30;94312.00;;;;7395133;19;20223;-77
2023/06/22 02:04:58;;;;;;;13.15;9.43;;;16.10;1.00;17.20;94321.00;;;;7397262;19;20735;-77
2023/06/22 02:07:33;;;;;;;13.38;9.63;;;16.10;1.00;17.10;94302.00;;;;7390970;19;20604;-76
2023/06/22 02:10:13;;;;;;;16.30;10.93;;;16.10;1.00;17.20;94302.00;;;;7395914;19;20602;-79
2023/06/22 02:12:44;;;;;;;16.70;12.18;;;16.10;51.40;17.30;94289.00;;;;7394442;19;20141;-80
2023/06/22 02:15:19;;;;;;;15.65;11.07;;;16.00;99.90;17.20;94251.00;;;;7396309;19;20132;-80
2023/06/22 02:17:48;;;;;;;16.08;11.75;;;16.00;99.90;17.20;94297.00;;;;7394481;19;20137;-79
2023/06/22 02:20:24;;;;;;;18.98;13.40;;;16.00;99.90;17.40;94286.00;;;;7393531;19;20170;-80
2023/06/22 02:22:51;;;;;;;18.05;12.77;;;16.00;99.90;17.40;94276.00;;;;7394759;19;20164;-79
2023/06/22 02:25:25;;;;;;;19.10;12.90;;;16.10;99.90;17.30;94263.00;;;;7393778;19;20161;-79
2023/06/22 02:27:59;;;;;;;15.27;12.18;;;16.10;99.90;17.20;94259.00;;;;7395844;19;20133;-80
2023/06/22 02:30:33;;;;;;;17.02;13.50;;;16.10;99.90;17.30;94248.00;;;;7394675;19;20153;-79
2023/06/22 02:33:07;;;;;;;20.52;13.63;;;16.10;99.90;17.30;94248.00;;;;7394516;19;20227;-80
2023/06/22 02:35:45;;;;;;;23.20;14.02;;;16.20;99.90;17.30;94278.00;;;;7392371;19;20125;-79
2023/06/22 02:38:19;;;;;;;20.80;13.27;;;16.20;99.90;17.30;94223.00;;;;7392291;19;20159;-78
2023/06/22 02:40:52;;;;;;;21.85;12.90;;;16.10;99.90;17.30;94280.00;;;;7394663;19;20597;-79
2023/06/22 02:43:20;;;;;;;20.63;12.48;;;16.10;99.90;17.30;94289.00;;;;7393940;19;20145;-80
2023/06/22 02:45:47;;;;;;;20.95;13.02;;;16.10;99.90;17.30;94275.00;;;;7395002;19;20137;-79
2023/06/22 02:48:21;;;;;;;15.88;12.18;;;16.10;99.90;17.20;94246.00;;;;7395227;19;20146;-77
2023/06/22 02:50:54;;;;;;;17.92;12.57;;;16.10;99.90;17.10;94267.00;;;;7393354;19;20149;-80
2023/06/22 02:53:28;;;;;;;16.25;13.10;;;16.00;99.90;17.20;94252.00;;;;7394494;19;20136;-79
2023/06/22 02:55:56;;;;;;;20.10;15.00;;;16.00;99.90;17.30;94272.00;;;;7393711;19;20144;-79
2023/06/22 02:58:30;;;;;;;19.83;14.30;;;16.10;99.90;17.40;94266.00;;;;7400036;19;20178;-80
2023/06/22 03:00:57;;;;;;;18.05;12.63;;;16.20;99.90;17.30;94249.00;;;;7401391;19;20505;-79
2023/06/22 03:03:32;;;;;;;25.90;15.10;;;16.20;99.90;17.30;94260.00;;;;7398775;19;20140;-79
2023/06/22 03:06:02;;;;;;;18.00;12.70;;;16.10;99.90;17.20;94249.00;;;;7400598;19;20663;-80
2023/06/22 03:08:43;;;;;;;18.25;14.75;;;16.10;99.90;17.20;94273.00;;;;7399196;19;20149;-78
2023/06/22 03:11:11;;;;;;;27.77;14.48;;;16.10;99.90;17.20;94244.00;;;;7399569;19;20173;-80
2023/06/22 03:13:46;;;;;;;16.50;14.02;;;16.10;99.90;17.20;94266.00;;;;7400814;19;20144;-79
2023/06/22 03:16:13;;;;;;;19.60;14.02;;;16.00;99.90;17.20;94263.00;;;;7401732;19;20188;-80
2023/06/22 03:18:48;;;;;;;18.67;14.68;;;16.00;1.00;17.10;94239.00;;;;7399587;19;20144;-75
2023/06/22 03:21:24;;;;;;;20.52;14.63;;;16.00;1.00;17.10;94242.00;;;;7401772;19;20131;-77
2023/06/22 03:23:51;;;;;;;21.83;15.23;;;16.00;99.90;17.00;94236.00;;;;7401348;19;20149;-76
2023/06/22 03:26:26;;;;;;;21.35;14.05;;;16.00;99.90;17.00;94236.00;;;;7399511;19;20155;-76
2023/06/22 03:28:54;;;;;;;19.08;14.65;;;15.90;99.90;16.90;94229.00;;;;7398709;19;20176;-76
2023/06/22 03:31:22;;;;;;;19.30;14.70;;;15.90;99.90;16.90;94260.00;;;;7400207;19;20635;-75
2023/06/22 03:33:57;;;;;;;21.58;14.75;;;15.80;99.90;16.90;94222.00;;;;7399161;19;20149;-76
2023/06/22 03:36:24;;;;;;;21.48;15.75;;;15.80;1.00;16.90;94253.00;;;;7395501;19;20607;-75
2023/06/22 03:38:59;;;;;;;19.13;14.68;;;15.80;1.00;17.00;94252.00;;;;7398500;19;20148;-75
2023/06/22 03:41:33;;;;;;;19.90;14.15;;;15.80;1.00;17.00;94207.00;;;;7397523;19;20156;-75
2023/06/22 03:44:00;;;;;;;23.23;15.95;;;15.80;1.00;17.10;94236.00;;;;7395469;19;20149;-76
2023/06/22 03:46:34;;;;;;;23.80;16.10;;;15.90;1.00;17.10;94226.00;;;;7401119;19;20141;-74
2023/06/22 03:49:08;;;;;;;19.92;14.68;;;15.90;1.00;17.10;94241.00;;;;7398543;19;20145;-74
2023/06/22 03:51:42;;;;;;;20.95;16.55;;;16.00;1.00;17.20;94252.00;;;;7398826;19;20153;-77
2023/06/22 03:54:16;;;;;;;21.02;16.52;;;16.00;1.00;17.30;94232.00;;;;7397290;19;20178;-76
2023/06/22 03:56:50;;;;;;;23.05;15.70;;;16.10;1.00;17.30;94240.00;;;;7400408;19;20607;-76
2023/06/22 03:59:25;;;;;;;23.73;16.77;;;16.10;1.00;17.30;94233.00;;;;7399920;19;20137;-76
2023/06/22 04:01:59;;;;;;;19.77;15.30;;;16.10;1.00;17.30;94236.00;;;;7397593;19;20485;-75
2023/06/22 04:04:28;;;;;;;24.25;16.30;;;16.10;1.00;17.40;94213.00;;;;7401617;19;20133;-76
2023/06/22 04:06:56;;;;;;;24.13;16.10;;;16.10;1.00;17.40;94229.00;;;;7397402;19;20637;-74
2023/06/22 04:09:36;;;;;;;21.17;15.35;;;16.20;1.00;17.50;94209.00;;;;7393146;19;20624;-76
2023/06/22 04:12:04;;;;;;;21.83;15.18;;;16.30;1.00;17.50;94232.00;;;;7400598;19;20208;-75
2023/06/22 04:14:39;;;;;;;19.42;15.27;;;16.30;1.00;17.60;94208.00;;;;7398808;19;20132;-76
2023/06/22 04:17:06;;;;;;;20.85;15.48;;;16.40;1.00;17.70;94194.00;;;;7397647;19;20491;-76
2023/06/22 04:19:41;;;;;;;16.77;14.07;;;16.50;1.00;17.80;94207.00;;;;7399105;19;20632;-76
2023/06/22 04:22:09;;;;;;;16.60;13.80;;;16.50;1.00;17.90;94224.00;;;;7397632;19;20149;-74
2023/06/22 04:24:44;;;;;;;20.30;14.77;;;16.60;1.00;18.00;94219.00;;;;7397441;19;20743;-74
2023/06/22 04:27:12;;;;;;;18.35;15.63;;;16.70;1.00;18.00;94217.00;;;;7379445;19;20154;-76
2023/06/22 04:29:48;;;;;;;20.13;14.65;;;16.80;1.00;18.10;94220.00;;;;7379956;19;20190;-77
2023/06/22 04:32:22;;;;;;;18.02;13.90;;;16.90;1.00;18.20;94214.00;;;;7387347;19;21239;-77
2023/06/22 04:34:49;;;;;;;17.48;13.23;;;17.00;1.00;18.30;94199.00;;;;7387582;19;20509;-76
2023/06/22 04:37:28;;;;;;;18.38;12.48;;;17.00;1.00;18.40;94196.00;;;;7388104;19;20158;-77
2023/06/22 04:39:59;;;;;;;15.02;11.02;;;17.10;99.90;18.50;94214.00;;;;7391540;19;20159;-77
2023/06/22 04:42:39;;;;;;;13.80;10.80;;;17.20;99.90;18.60;94193.00;;;;7389569;19;20182;-78
2023/06/22 04:45:13;;;;;;;16.00;11.52;;;17.30;99.90;18.80;94189.00;;;;7392753;19;20152;-77
2023/06/22 04:47:58;;;;;;;13.25;10.20;;;17.40;11.20;18.80;94177.00;;;;7390700;19;20160;-77
2023/06/22 04:50:32;;;;;;;15.20;11.80;;;17.60;1.00;18.90;94199.00;;;;7390546;19;20138;-77
2023/06/22 04:52:59;;;;;;;11.70;9.93;;;17.60;1.00;19.00;94176.00;;;;7391333;19;20164;-77
2023/06/22 04:55:37;;;;;;;13.55;9.95;;;17.80;99.90;19.10;94184.00;;;;7391594;19;20132;-77
2023/06/22 04:58:05;;;;;;;13.13;9.95;;;17.90;99.90;19.20;94195.00;;;;7389723;19;20144;-77
2023/06/22 05:00:44;;;;;;;13.65;10.32;;;18.00;99.90;19.20;94198.00;;;;7392274;19;20152;-76
2023/06/22 05:03:19;;;;;;;14.95;10.18;;;18.20;1.00;19.30;94150.00;;;;7391247;19;20172;-76
2023/06/22 05:05:53;;;;;;;16.85;10.00;;;18.20;1.00;19.10;94155.00;;;;7392168;19;20152;-77
2023/06/22 05:08:34;;;;;;;11.68;9.85;;;18.30;99.90;19.20;94170.00;;;;7389160;19;20519;-77
2023/06/22 05:11:08;;;;;;;12.15;9.65;;;18.40;99.90;19.30;94163.00;;;;7389714;19;20133;-77
2023/06/22 05:13:43;;;;;;;12.05;9.57;;;18.40;99.90;19.40;94185.00;;;;7392642;19;20510;-78
2023/06/22 05:16:10;;;;;;;11.65;9.18;;;18.50;99.90;19.40;94182.00;;;;7391914;19;20132;-78
2023/06/22 05:18:45;;;;;;;11.63;8.70;;;18.50;99.90;19.50;94146.00;;;;7391074;19;20246;-76
2023/06/22 05:21:15;;;;;;;10.98;8.55;;;18.60;1.00;19.70;94147.00;;;;7389789;19;20129;-78
2023/06/22 05:23:52;;;;;;;10.82;8.48;;;18.70;10.40;19.70;94178.00;;;;7390479;19;20208;-77
2023/06/22 05:26:22;;;;;;;11.07;8.25;;;18.80;1.00;19.70;94170.00;;;;7390676;19;20152;-78
2023/06/22 05:28:56;;;;;;;8.95;7.70;;;18.90;1.00;19.80;94152.00;;;;7388418;19;20135;-77
2023/06/22 05:31:24;;;;;;;11.18;8.48;;;18.90;1.00;19.80;94151.00;;;;7389560;19;20148;-77
2023/06/22 05:34:02;;;;;;;13.35;8.90;;;19.00;1.00;20.00;94161.00;;;;7388961;19;20148;-77
2023/06/22 05:36:36;;;;;;;10.02;8.05;;;19.10;99.90;20.10;94169.00;;;;7385530;19;20491;-77
2023/06/22 05:39:14;;;;;;;10.27;8.05;;;19.30;99.90;20.30;94143.00;;;;7384825;19;20166;-77
2023/06/22 05:41:49;;;;;;;12.18;8.88;;;19.40;78.50;20.40;94153.00;;;;7385020;19;20149;-77
2023/06/22 05:44:22;;;;;;;12.25;8.32;;;19.50;1.00;20.40;94164.00;;;;7384101;19;20157;-78
2023/06/22 05:46:49;;;;;;;14.25;8.10;;;19.60;1.00;20.50;94156.00;;;;7384936;19;20125;-78
2023/06/22 05:49:29;;;;;;;10.23;7.93;;;19.80;1.00;20.70;94180.00;;;;7384437;19;20554;-76
2023/06/22 05:51:56;;;;;;;11.18;7.10;;;19.90;1.00;20.90;94135.00;;;;7384015;19;20149;-78
2023/06/22 05:54:31;;;;;;;12.38;7.28;;;20.00;99.90;21.00;94170.00;;;;7386132;19;20152;-79
2023/06/22 05:57:06;;;;;;;10.05;7.10;;;20.20;99.90;21.00;94177.00;;;;7384258;19;20625;-76
2023/06/22 05:59:39;;;;;;;8.65;7.00;;;20.30;99.90;21.40;94131.00;;;;7387580;19;20136;-81
2023/06/22 06:02:07;;;;;;;13.27;6.85;;;20.40;1.00;21.50;94165.00;;;;7384814;19;20168;-77
2023/06/22 06:04:42;;;;;;;10.13;6.78;;;20.50;1.00;21.70;94166.00;;;;7385063;19;20656;-78
2023/06/22 06:07:15;;;;;;;8.73;6.65;;;20.70;1.00;22.00;94169.00;;;;7384595;19;20156;-77
2023/06/22 06:09:50;;;;;;;8.73;6.50;;;20.90;1.00;22.40;94170.00;;;;7383060;19;20155;-81
2023/06/22 06:12:20;;;;;;;8.98;5.82;;;21.10;99.90;22.60;94147.00;;;;7387176;19;20152;-79
2023/06/22 06:14:56;;;;;;;11.43;6.43;;;21.40;80.10;23.00;94153.00;;;;7385311;19;20144;-81
2023/06/22 06:17:23;;;;;;;9.95;6.20;;;21.50;1.00;23.20;94125.00;;;;7386831;19;20133;-78
2023/06/22 06:20:00;;;;;;;8.75;6.35;;;21.60;1.00;23.20;94154.00;;;;7384499;19;20132;-79
2023/06/22 06:22:28;;;;;;;11.43;6.70;;;21.70;1.00;23.30;94149.00;;;;7387000;19;20646;-79
2023/06/22 06:24:55;;;;;;;10.98;6.28;;;21.80;1.00;23.20;94157.00;;;;7386852;19;20488;-78
2023/06/22 06:27:29;;;;;;;11.30;6.28;;;21.80;1.00;23.10;94155.00;;;;7385999;19;20143;-78
2023/06/22 06:29:57;;;;;;;8.73;5.50;;;21.90;99.90;23.50;94136.00;;;;7388258;19;20731;-81
2023/06/22 06:32:32;;;;;;;9.45;6.10;;;21.90;99.90;23.40;94145.00;;;;7392007;19;20157;-79
2023/06/22 06:34:59;;;;;;;9.43;5.40;;;22.00;99.90;23.70;94153.00;;;;7393564;19;20166;-81
2023/06/22 06:37:37;;;;;;;7.28;5.15;;;22.10;99.90;23.70;94156.00;;;;7389562;19;20593;-79
2023/06/22 06:40:14;;;;;;;7.97;5.32;;;22.10;99.90;23.60;94168.00;;;;7396749;19;20133;-81
2023/06/22 06:42:49;;;;;;;9.32;5.60;;;22.20;99.90;23.20;94136.00;;;;7394495;19;20129;-81
2023/06/22 06:45:28;;;;;;;12.95;5.85;;;22.20;99.90;22.90;94152.00;;;;7392551;19;21533;-76
2023/06/22 06:47:56;;;;;;;8.60;5.28;;;22.20;99.90;22.80;94144.00;;;;7390176;19;21092;-76
2023/06/22 06:50:31;;;;;;;7.30;4.88;;;22.30;99.90;22.90;94121.00;;;;7390360;19;20132;-75
2023/06/22 06:52:59;;;;;;;7.95;5.05;;;22.40;99.90;22.90;94137.00;;;;7389839;19;20597;-76
2023/06/22 06:55:34;;;;;;;8.07;5.28;;;22.40;99.90;23.10;94136.00;;;;7387709;19;20155;-75
2023/06/22 06:58:04;;;;;;;9.90;5.40;;;22.50;99.90;23.40;94135.00;;;;7388410;19;20125;-77
2023/06/22 07:00:31;;;;;;;9.57;5.43;;;22.60;50.80;23.30;94129.00;;;;7389192;19;20140;-75
2023/06/22 07:03:27;;;;;;;7.18;4.88;;;22.70;50.70;23.40;94129.00;;;;7388826;19;20547;-74
2023/06/22 07:06:04;;;;;;;14.02;5.75;;;22.80;52.00;23.40;94098.00;;;;7389137;19;20152;-73
2023/06/22 07:08:45;;;;;;;10.80;5.97;;;22.80;55.50;23.30;94133.00;;;;7386767;19;20252;-76
2023/06/22 07:11:19;;;;;;;9.32;5.50;;;22.90;1.00;23.50;94112.00;;;;7390086;19;20149;-76
2023/06/22 07:13:53;;;;;;;10.57;4.95;;;23.00;1.00;23.60;94131.00;;;;7390958;19;20593;-78
2023/06/22 07:16:28;;;;;;;8.55;5.50;;;23.00;1.00;23.80;94118.00;;;;7389344;19;20466;-76
2023/06/22 07:19:02;;;;;;;8.57;5.32;;;23.10;1.00;23.70;94103.00;;;;7389136;19;20133;-76
2023/06/22 07:21:29;;;;;;;11.48;5.80;;;23.20;1.00;24.10;94108.00;;;;7387943;19;20153;-77
2023/06/22 07:24:11;;;;;;;14.05;5.90;;;23.30;1.00;24.20;94111.00;;;;7390559;19;20469;-77
2023/06/22 07:26:45;;;;;;;9.93;5.85;;;23.30;1.00;24.10;94088.00;;;;7389463;19;20128;-75
2023/06/22 07:29:21;;;;;;;12.18;5.60;;;23.40;1.00;24.30;94124.00;;;;7386640;19;20156;-76
2023/06/22 07:31:51;;;;;;;10.35;6.15;;;23.60;1.00;24.30;94098.00;;;;7385681;19;20150;-76
2023/06/22 07:34:25;;;;;;;10.50;5.13;;;23.80;1.00;24.30;94117.00;;;;7386847;19;20531;-75
2023/06/22 07:36:52;;;;;;;11.02;5.80;;;23.90;1.00;24.50;94099.00;;;;7380866;19;20605;-78
2023/06/22 07:39:26;;;;;;;8.55;5.38;;;23.90;1.00;24.60;94114.00;;;;7386543;19;20159;-76
2023/06/22 07:42:00;;;;;;;8.68;5.60;;;23.90;1.00;24.60;94089.00;;;;7385596;19;20136;-75
2023/06/22 07:44:33;;;;;;;8.63;5.28;;;23.90;1.00;24.90;94068.00;;;;7383787;19;20137;-75
2023/06/22 07:47:01;;;;;;;8.60;5.32;;;24.30;1.00;25.40;94094.00;;;;7388117;19;20577;-76
2023/06/22 07:49:36;;;;;;;12.93;5.80;;;24.50;1.00;25.70;94098.00;;;;7389607;19;20486;-73
2023/06/22 07:52:04;;;;;;;10.73;5.40;;;24.80;1.00;25.70;94080.00;;;;7386426;19;20148;-76
2023/06/22 07:54:39;;;;;;;9.52;5.72;;;24.80;1.00;25.60;94122.00;;;;7386933;19;20512;-77
2023/06/22 07:57:06;;;;;;;15.75;6.10;;;24.80;1.00;25.40;94121.00;;;;7389227;19;20157;-76
2023/06/22 07:59:40;;;;;;;10.02;5.72;;;24.50;1.00;25.30;94116.00;;;;7390137;19;20128;-76
2023/06/22 08:02:09;;;;;;;11.82;5.70;;;24.60;1.00;25.30;94130.00;;;;7389397;19;20535;-79
2023/06/22 08:04:43;;;;;;;7.82;5.63;;;24.80;1.00;26.00;94142.00;;;;7388018;19;20162;-78
2023/06/22 08:07:19;;;;;;;14.55;5.68;;;25.10;1.00;25.60;94118.00;;;;7388897;19;20180;-76
2023/06/22 08:10:01;;;;;;;9.48;5.70;;;25.40;1.00;26.10;94135.00;;;;7388341;19;20129;-78
2023/06/22 08:12:34;;;;;;;11.68;5.15;;;25.50;1.00;26.00;94160.00;;;;7389146;19;20129;-76
2023/06/22 08:15:09;;;;;;;14.27;6.13;;;25.60;1.00;25.40;94164.00;;;;7388676;19;20153;-78
2023/06/22 08:17:44;;;;;;;10.50;5.70;;;25.40;1.00;25.00;94177.00;;;;7392395;19;20582;-78
2023/06/22 08:20:19;;;;;;;12.68;5.57;;;25.20;1.00;24.70;94180.00;;;;7392326;19;20584;-77
2023/06/22 08:22:55;;;;;;;14.40;5.35;;;24.80;1.00;24.60;94144.00;;;;7391079;19;20259;-80
2023/06/22 08:25:22;;;;;;;12.88;6.28;;;24.30;1.00;24.30;94185.00;;;;7392520;19;20196;-80
2023/06/22 08:27:57;;;;;;;9.73;5.53;;;23.90;1.00;24.10;94182.00;;;;7390993;19;20178;-83
2023/06/22 08:30:24;;;;;;;12.65;5.00;;;23.70;1.00;23.90;94177.00;;;;7393815;19;20135;-80
2023/06/22 08:32:51;;;;;;;10.77;5.88;;;23.40;1.00;23.60;94249.00;;;;7393067;19;20536;-80
2023/06/22 08:35:26;;;;;;;8.80;5.55;;;23.20;1.00;23.40;94226.00;;;;7389482;19;20581;-76
2023/06/22 08:37:55;;;;;;;10.48;5.93;;;;;23.50;94202.00;;;;7388313;19;20478;-76
2023/06/22 08:40:30;;;;;;;14.00;6.07;;;;;23.60;94185.00;;;;7387361;19;20128;-76
2023/06/22 08:43:05;;;;;;;10.00;5.53;;;;;24.00;94178.00;;;;7386465;19;20204;-78
2023/06/22 08:45:33;;;;;;;12.13;5.97;;;;;24.70;94162.00;;;;7387337;19;20133;-78
2023/06/22 08:48:08;;;;;;;13.32;5.13;;;;;25.10;94204.00;;;;7388956;19;20129;-78
2023/06/22 08:50:37;;;;;;;13.70;6.40;;;;;25.00;94147.00;;;;7389321;19;20628;-77
2023/06/22 08:53:11;;;;;;;10.93;5.40;;;;;25.40;94143.00;;;;7389215;19;20152;-77
2023/06/22 08:55:39;;;;;;;9.65;5.38;;;;;25.60;94116.00;;;;7386286;19;20186;-77
2023/06/22 08:58:13;;;;;;;10.32;5.70;;;;;25.90;94116.00;;;;7388065;19;20615;-77
2023/06/22 09:00:41;;;;;;;8.50;5.45;;;;;26.00;94149.00;;;;7387842;19;20132;-77
2023/06/22 09:03:16;;;;;;;10.13;5.28;;;;;25.40;94146.00;;;;7392384;19;20167;-78
2023/06/22 09:05:44;;;;;;;12.13;5.22;;;;;24.90;94142.00;;;;7389576;19;20176;-76
2023/06/22 09:08:25;;;;;;;9.95;5.63;;;;;24.70;94143.00;;;;7386460;19;20152;-77
2023/06/22 09:11:07;;;;;;;10.82;5.32;;;;;24.70;94138.00;;;;7386369;19;20160;-77
2023/06/22 09:13:43;;;;;;;15.93;5.68;;;;;25.20;94114.00;;;;7387283;19;20160;-78
2023/06/22 09:16:11;;;;;;;14.75;5.95;;;;;26.10;94104.00;;;;7386304;19;20476;-78
2023/06/22 09:18:49;;;;;;;15.63;5.97;;;;;26.80;94126.00;;;;7386754;19;20955;-80
2023/06/22 09:21:17;;;;;;;9.93;6.22;;;;;27.40;94106.00;;;;7385856;19;20133;-81
2023/06/22 09:23:52;;;;;;;11.98;6.10;;;;;27.90;94098.00;;;;7387481;19;20152;-81
2023/06/22 09:26:23;;;;;;;15.27;6.68;;;;;28.20;94098.00;;;;7387222;19;20160;-80
2023/06/22 09:28:57;;;;;;;10.73;5.43;;;;;28.30;94095.00;;;;7385190;19;20530;-79
2023/06/22 09:31:25;;;;;;;8.73;5.03;;;;;28.50;94094.00;;;;7388260;19;20160;-82
2023/06/22 09:33:59;;;;;;;11.98;6.10;;;;;28.60;94091.00;;;;7387285;19;20621;-79
2023/06/22 09:36:27;;;;;;;9.93;5.70;;;;;29.20;94076.00;;;;7385996;19;20128;-79
2023/06/22 09:39:05;;;;;;;10.77;5.60;;;;;29.80;94096.00;;;;7386588;19;20163;-80
2023/06/22 09:41:33;;;;;;;14.88;5.65;;;;;29.90;94091.00;;;;7387223;19;20140;-79
2023/06/22 09:44:08;;;;;;;15.63;5.80;;;;;29.30;94096.00;;;;7387313;19;20152;-80
2023/06/22 09:46:37;;;;;;;9.70;5.13;;;;;29.10;94108.00;;;;7386141;19;20137;-79
2023/06/22 09:49:11;;;;;;;10.52;5.45;;;;;29.40;94102.00;;;;7386059;19;20134;-80
2023/06/22 09:51:39;;;;;;;9.82;5.75;;;;;30.10;94107.00;;;;7386184;19;20135;-79
2023/06/22 09:54:14;;;;;;;12.23;5.57;;;;;29.70;94099.00;;;;7383942;19;20155;-79
2023/06/22 09:56:50;;;;;;;10.05;5.68;;;;;29.70;94097.00;;;;7384196;19;20135;-79
2023/06/22 09:59:24;;;;;;;19.25;6.07;;;;;29.80;94077.00;;;;7387533;19;20140;-80
2023/06/22 10:01:54;;;;;;;11.20;5.20;;;;;30.20;94061.00;;;;7383972;19;20184;-78
2023/06/22 10:04:28;;;;;;;12.48;5.57;;;;;30.70;94068.00;;;;7382708;19;20980;-79
2023/06/22 10:07:10;;;;;;;12.48;5.57;;;;;30.50;94083.00;;;;7380018;19;20147;-78
2023/06/22 10:09:45;;;;;;;10.25;5.07;;;;;30.30;94079.00;;;;7384862;19;20177;-78
2023/06/22 10:12:19;;;;;;;17.17;6.10;;;;;30.30;94075.00;;;;7385435;19;20143;-79
2023/06/22 10:14:51;;;;;;;9.68;5.28;;;;;30.60;94076.00;;;;7382783;19;20153;-78
2023/06/22 10:17:20;;;;;;;11.20;5.68;;;;;30.80;94075.00;;;;7383230;19;20148;-79
2023/06/22 10:19:54;;;;;;;13.10;5.53;;;;;30.90;94070.00;;;;7382806;19;20147;-79
2023/06/22 10:22:22;;;;;;;10.52;5.40;;;;;31.40;94067.00;;;;7382365;19;20173;-78
2023/06/22 10:24:56;;;;;;;10.15;5.18;;;;;31.60;94067.00;;;;7384163;19;20181;-77
2023/06/22 10:27:24;;;;;;;8.93;5.38;;;;;31.80;94077.00;;;;7382900;19;20454;-78
2023/06/22 10:29:59;;;;;;;13.15;5.82;;;;;31.40;94069.00;;;;7384645;19;20149;-79
2023/06/22 10:32:33;;;;;;;11.65;5.47;;;;;31.20;94079.00;;;;7383824;19;20193;-79
2023/06/22 10:35:15;;;;;;;10.25;5.63;;;;;31.00;94084.00;;;;7383770;19;20563;-78
2023/06/22 10:37:46;;;;;;;10.05;5.53;;;;;30.30;94092.00;;;;7383114;19;20151;-80
2023/06/22 10:40:21;;;;;;;12.38;5.95;;;;;30.20;94086.00;;;;7384197;19;20132;-79
2023/06/22 10:42:55;;;;;;;10.13;5.32;;;;;30.00;94078.00;;;;7384217;19;20608;-77
2023/06/22 10:45:29;;;;;;;17.08;6.20;;;;;30.00;94080.00;;;;7383314;19;20622;-80
2023/06/22 10:48:05;;;;;;;9.77;5.40;;;;;30.40;94073.00;;;;7382720;19;20614;-78
2023/06/22 10:50:39;;;;;;;8.73;5.85;;;;;30.70;94077.00;;;;7384467;19;20143;-77
2023/06/22 10:53:08;;;;;;;11.05;5.32;;;;;31.10;94072.00;;;;7383138;19;20148;-78
2023/06/22 10:55:42;;;;;;;15.07;5.63;;;;;31.60;94065.00;;;;7385900;19;20602;-77
2023/06/22 10:58:23;;;;;;;9.50;5.57;;;;;32.10;94050.00;;;;7384359;19;20142;-77
2023/06/22 11:00:51;;;;;;;11.68;5.78;;;;;33.00;94047.00;;;;7382692;19;20640;-80
2023/06/22 11:03:27;;;;;;;13.90;6.32;;;;;32.90;94059.00;;;;7382256;19;20939;-78
2023/06/22 11:06:02;;;;;;;12.55;5.72;;;;;32.80;94073.00;;;;7382956;19;20128;-78
2023/06/22 11:08:37;;;;;;;11.07;5.88;;;;;32.30;94081.00;;;;7382183;19;20156;-79
2023/06/22 11:11:30;;;;;;;10.25;5.53;;;;;31.90;94081.00;;;;7382785;19;20612;-78
2023/06/22 11:13:58;;;;;;;11.32;5.93;;;;;31.50;94083.00;;;;7381702;19;20237;-79
2023/06/22 11:16:34;;;;;;;13.40;6.07;;;;;30.90;94079.00;;;;7382732;19;20178;-79
2023/06/22 11:19:05;;;;;;;11.10;5.28;;;;;30.60;94083.00;;;;7384563;19;20156;-78
2023/06/22 11:21:40;;;;;;;11.35;5.88;;;;;30.40;94085.00;;;;7388716;19;20148;-77
2023/06/22 11:24:07;;;;;;;12.85;5.32;;;;;30.20;94083.00;;;;7389394;19;20129;-78
2023/06/22 11:26:41;;;;;;;10.35;6.13;;;;;29.90;94087.00;;;;7388907;19;20152;-78
2023/06/22 11:29:15;;;;;;;12.07;5.35;;;;;30.00;94072.00;;;;7388925;19;20148;-74
2023/06/22 11:32:04;;;;;;;12.90;6.13;;;;;29.90;94081.00;;;;7388800;19;20267;-76
2023/06/22 11:34:42;;;;;;;9.65;5.82;;;;;29.60;94080.00;;;;7388684;19;20132;-74
2023/06/22 11:37:17;;;;;;;9.88;5.63;;;;;29.40;94087.00;;;;7389059;19;20155;-75
2023/06/22 11:39:54;;;;;;;13.93;5.63;;;;;29.20;94075.00;;;;7388893;19;20128;-74
2023/06/22 11:42:34;;;;;;;10.48;4.88;;;;;28.80;94088.00;;;;7389499;19;20148;-77
2023/06/22 11:45:09;;;;;;;10.43;5.28;;;;;28.60;94089.00;;;;7389098;19;20535;-77